Marshall Army Air Field
KFRI : now visible

Airfield :











YOU CAN JOIN US ON...

 
LOGIN :

Register | Disclaimer

   EN    FR    IT 

 









Legend :    VFR   Marginal VFR   IFR   Intensive IFR   Very Intensive IFR
Visi :
Ceiling :
>= 8 km
>= 3000ft
5 to 8 km
1000 to 3000 ft
1500m to 5 km
500 to 1000 ft
800 to 1500m
200 to 500 ft
< 800m
< 200 ft
Symbols :   Thunderstorms  Fog  Heavy snow  Heavy precipitations  Wind > 20 kt






- Airport Elevation : 1065 ft


KFRI - Marshall Army Air Field

CURRENT METAR :
  • 181156Z AUTO 32013G23KT 10SM CLR M03/M09 A3017 RMK AO2 PK WND 32026/28 SLP226 60000 70023 T10291086 10047 21029 52073 $

EXPIRED METARs :
  • 181141Z AUTO 31009G23KT 10SM SCT021 M02/M07 A3016 RMK AO2 PRESRR SLP222 $
  • 181126Z AUTO 31016G21KT 10SM BKN020 OVC027 M01/M06 A3013 RMK AO2 BKN V OVC PRESRR SLP211 $
  • 181056Z AUTO 32006G18KT 10SM OVC017 M01/M04 A3010 RMK AO2 PK WND 31028/30 SLP201 T10061045 $
  • 181036Z AUTO 32017G28KT 10SM OVC015 00/M04 A3009 RMK AO2 PRESRR SLP197 $
  • 180956Z AUTO 31013G24KT 10SM BKN015 OVC021 01/M02 A3003 RMK AO2 PK WND 29026/28 BKN V OVC SLP176 T00121022 $
  • 180941Z AUTO 33012G25KT 10SM OVC015 02/M01 A3002 RMK AO2 PRESRR SLP173 $
  • 180911Z AUTO 30010G16KT 10SM FEW010 OVC015 03/01 A2996 RMK AO2 SLP152 $

TAF AMD TAF KFRI
Valid from the 17 at 23:00 until the 18 at 19:00 UTC


172327Z 1723/1819 17014G23KT 9999 OVC007 QNH2982INS
BECMG 1807/1808 31015G35KT 9999 NSW SCT006 SCT020 520002 QNH2976INS
BECMG 1812/1813 31015G35KT 9999 SKC 520002 QNH2990INS TX08/1806Z TNM02/1813Z LAST NO AMD AFT 1723 NEXT 2105



MET'MAP, your aeronautical weather chart ! - Copyright ORBIFLY December 2007 - Disclaimer

ORBIFLY MET'MAP TEAM :

Programming & Development : Alexandra Zaïnal
Concept & original design : Baudouin d'Aumeries
Assistance for programming : Marc-Olivier Méhu
Technical & hardware support : Manuel Goepfert

Contact : metmap@orbifly.com




SOURCES & CREDITS :

   NOAA       Earth
Advisory